sensor_id;sensor_type;location;lat;lon;timestamp;P1;durP1;ratioP1;P2;durP2;ratioP2
16101;SDS011;56411;52.964;10.540;2023-03-03T00:01:24;31.67;;;16.33;;
16101;SDS011;56411;52.964;10.540;2023-03-03T00:03:51;32.53;;;16.63;;
16101;SDS011;56411;52.964;10.540;2023-03-03T00:06:19;38.63;;;17.97;;
16101;SDS011;56411;52.964;10.540;2023-03-03T00:08:48;36.43;;;16.57;;
16101;SDS011;56411;52.964;10.540;2023-03-03T00:11:21;32.80;;;15.63;;
16101;SDS011;56411;52.964;10.540;2023-03-03T00:13:49;31.50;;;16.07;;
16101;SDS011;56411;52.964;10.540;2023-03-03T00:16:22;31.40;;;15.40;;
16101;SDS011;56411;52.964;10.540;2023-03-03T00:18:55;30.60;;;15.60;;
16101;SDS011;56411;52.964;10.540;2023-03-03T00:21:24;33.87;;;16.17;;
16101;SDS011;56411;52.964;10.540;2023-03-03T00:23:57;32.77;;;15.03;;
16101;SDS011;56411;52.964;10.540;2023-03-03T00:26:43;30.70;;;15.87;;
16101;SDS011;56411;52.964;10.540;2023-03-03T00:29:30;35.10;;;15.97;;
16101;SDS011;56411;52.964;10.540;2023-03-03T00:32:09;34.13;;;16.33;;
16101;SDS011;56411;52.964;10.540;2023-03-03T00:34:47;35.63;;;16.93;;
16101;SDS011;56411;52.964;10.540;2023-03-03T00:37:29;32.50;;;16.20;;
16101;SDS011;56411;52.964;10.540;2023-03-03T00:40:12;31.57;;;16.23;;
16101;SDS011;56411;52.964;10.540;2023-03-03T00:42:46;32.87;;;16.53;;
16101;SDS011;56411;52.964;10.540;2023-03-03T00:45:17;33.53;;;16.47;;
16101;SDS011;56411;52.964;10.540;2023-03-03T00:48:06;34.87;;;16.30;;
16101;SDS011;56411;52.964;10.540;2023-03-03T00:50:44;35.23;;;16.73;;
16101;SDS011;56411;52.964;10.540;2023-03-03T00:53:12;33.87;;;17.13;;
16101;SDS011;56411;52.964;10.540;2023-03-03T00:55:43;33.70;;;17.33;;
16101;SDS011;56411;52.964;10.540;2023-03-03T00:58:11;34.80;;;17.50;;
16101;SDS011;56411;52.964;10.540;2023-03-03T01:00:39;34.87;;;17.10;;
16101;SDS011;56411;52.964;10.540;2023-03-03T01:03:07;35.87;;;17.03;;
16101;SDS011;56411;52.964;10.540;2023-03-03T01:05:38;38.70;;;17.77;;
16101;SDS011;56411;52.964;10.540;2023-03-03T01:08:08;36.63;;;16.97;;
16101;SDS011;56411;52.964;10.540;2023-03-03T01:10:37;36.10;;;17.93;;
16101;SDS011;56411;52.964;10.540;2023-03-03T01:13:08;37.90;;;17.40;;
16101;SDS011;56411;52.964;10.540;2023-03-03T01:15:37;35.03;;;18.37;;
16101;SDS011;56411;52.964;10.540;2023-03-03T01:18:05;33.90;;;17.07;;
16101;SDS011;56411;52.964;10.540;2023-03-03T01:20:33;36.07;;;17.33;;
16101;SDS011;56411;52.964;10.540;2023-03-03T01:23:00;36.27;;;17.47;;
16101;SDS011;56411;52.964;10.540;2023-03-03T01:25:28;36.40;;;18.63;;
16101;SDS011;56411;52.964;10.540;2023-03-03T01:27:55;38.20;;;18.93;;
16101;SDS011;56411;52.964;10.540;2023-03-03T01:30:24;35.97;;;17.83;;
16101;SDS011;56411;52.964;10.540;2023-03-03T01:32:52;35.97;;;17.93;;
16101;SDS011;56411;52.964;10.540;2023-03-03T01:35:19;36.07;;;18.03;;
16101;SDS011;56411;52.964;10.540;2023-03-03T01:37:47;37.20;;;18.47;;
16101;SDS011;56411;52.964;10.540;2023-03-03T01:40:15;35.37;;;17.13;;
16101;SDS011;56411;52.964;10.540;2023-03-03T01:42:44;36.43;;;18.20;;
16101;SDS011;56411;52.964;10.540;2023-03-03T01:45:13;34.80;;;17.43;;
16101;SDS011;56411;52.964;10.540;2023-03-03T01:47:47;34.00;;;17.10;;
16101;SDS011;56411;52.964;10.540;2023-03-03T01:50:22;36.37;;;17.53;;
16101;SDS011;56411;52.964;10.540;2023-03-03T01:52:56;33.40;;;17.10;;
16101;SDS011;56411;52.964;10.540;2023-03-03T01:55:27;31.87;;;15.77;;
16101;SDS011;56411;52.964;10.540;2023-03-03T01:57:59;34.47;;;15.73;;
16101;SDS011;56411;52.964;10.540;2023-03-03T02:00:29;33.60;;;15.90;;
16101;SDS011;56411;52.964;10.540;2023-03-03T02:02:59;33.40;;;16.77;;
16101;SDS011;56411;52.964;10.540;2023-03-03T02:05:27;32.40;;;17.27;;
16101;SDS011;56411;52.964;10.540;2023-03-03T02:07:55;32.50;;;16.63;;
16101;SDS011;56411;52.964;10.540;2023-03-03T02:10:25;36.20;;;17.37;;
16101;SDS011;56411;52.964;10.540;2023-03-03T02:12:55;34.70;;;17.40;;
16101;SDS011;56411;52.964;10.540;2023-03-03T02:15:24;34.07;;;17.30;;
16101;SDS011;56411;52.964;10.540;2023-03-03T02:17:53;34.83;;;17.40;;
16101;SDS011;56411;52.964;10.540;2023-03-03T02:20:34;31.07;;;15.53;;
16101;SDS011;56411;52.964;10.540;2023-03-03T02:23:10;32.47;;;16.47;;
16101;SDS011;56411;52.964;10.540;2023-03-03T02:25:45;32.63;;;16.87;;
16101;SDS011;56411;52.964;10.540;2023-03-03T02:28:22;31.80;;;15.93;;
16101;SDS011;56411;52.964;10.540;2023-03-03T02:30:53;31.27;;;14.97;;
16101;SDS011;56411;52.964;10.540;2023-03-03T02:33:21;33.43;;;16.17;;
16101;SDS011;56411;52.964;10.540;2023-03-03T02:35:48;30.87;;;16.17;;
16101;SDS011;56411;52.964;10.540;2023-03-03T02:38:17;31.97;;;16.13;;
16101;SDS011;56411;52.964;10.540;2023-03-03T02:40:50;32.77;;;15.87;;
16101;SDS011;56411;52.964;10.540;2023-03-03T02:43:28;32.40;;;15.87;;
16101;SDS011;56411;52.964;10.540;2023-03-03T02:46:01;31.93;;;16.20;;
16101;SDS011;56411;52.964;10.540;2023-03-03T02:48:29;34.43;;;17.03;;
16101;SDS011;56411;52.964;10.540;2023-03-03T02:50:56;34.63;;;16.83;;
16101;SDS011;56411;52.964;10.540;2023-03-03T02:53:23;31.97;;;15.83;;
16101;SDS011;56411;52.964;10.540;2023-03-03T02:55:50;34.43;;;16.67;;
16101;SDS011;56411;52.964;10.540;2023-03-03T02:58:17;35.47;;;17.07;;
16101;SDS011;56411;52.964;10.540;2023-03-03T03:00:46;34.10;;;17.33;;
16101;SDS011;56411;52.964;10.540;2023-03-03T03:03:13;32.10;;;16.07;;
16101;SDS011;56411;52.964;10.540;2023-03-03T03:05:40;35.37;;;17.60;;
16101;SDS011;56411;52.964;10.540;2023-03-03T03:08:08;37.03;;;17.77;;
16101;SDS011;56411;52.964;10.540;2023-03-03T03:10:35;36.60;;;17.47;;
16101;SDS011;56411;52.964;10.540;2023-03-03T03:13:02;43.40;;;20.13;;
16101;SDS011;56411;52.964;10.540;2023-03-03T03:15:31;45.17;;;21.07;;
16101;SDS011;56411;52.964;10.540;2023-03-03T03:18:00;44.37;;;21.10;;
16101;SDS011;56411;52.964;10.540;2023-03-03T03:20:27;47.83;;;21.53;;
16101;SDS011;56411;52.964;10.540;2023-03-03T03:22:54;47.50;;;22.03;;
16101;SDS011;56411;52.964;10.540;2023-03-03T03:25:22;47.87;;;22.37;;
16101;SDS011;56411;52.964;10.540;2023-03-03T03:27:49;54.27;;;22.67;;
16101;SDS011;56411;52.964;10.540;2023-03-03T03:30:18;56.57;;;23.17;;
16101;SDS011;56411;52.964;10.540;2023-03-03T03:32:46;56.50;;;23.20;;
16101;SDS011;56411;52.964;10.540;2023-03-03T03:35:15;61.00;;;25.37;;
16101;SDS011;56411;52.964;10.540;2023-03-03T03:37:43;57.60;;;25.03;;
16101;SDS011;56411;52.964;10.540;2023-03-03T03:40:11;67.40;;;27.13;;
16101;SDS011;56411;52.964;10.540;2023-03-03T03:42:40;72.93;;;27.13;;
16101;SDS011;56411;52.964;10.540;2023-03-03T03:45:09;62.97;;;26.30;;
16101;SDS011;56411;52.964;10.540;2023-03-03T03:47:39;58.53;;;24.77;;
16101;SDS011;56411;52.964;10.540;2023-03-03T03:50:08;62.23;;;25.03;;
16101;SDS011;56411;52.964;10.540;2023-03-03T03:52:38;59.77;;;25.37;;
16101;SDS011;56411;52.964;10.540;2023-03-03T03:55:05;64.33;;;26.37;;
16101;SDS011;56411;52.964;10.540;2023-03-03T03:57:33;60.40;;;24.93;;
16101;SDS011;56411;52.964;10.540;2023-03-03T04:00:02;67.00;;;26.63;;
16101;SDS011;56411;52.964;10.540;2023-03-03T04:02:30;63.97;;;25.50;;
16101;SDS011;56411;52.964;10.540;2023-03-03T04:04:57;61.93;;;24.93;;
16101;SDS011;56411;52.964;10.540;2023-03-03T04:07:24;61.37;;;24.40;;
16101;SDS011;56411;52.964;10.540;2023-03-03T04:09:53;69.63;;;26.67;;
16101;SDS011;56411;52.964;10.540;2023-03-03T04:12:23;66.60;;;27.57;;
16101;SDS011;56411;52.964;10.540;2023-03-03T04:14:54;73.97;;;27.27;;
16101;SDS011;56411;52.964;10.540;2023-03-03T04:17:22;60.63;;;25.10;;
16101;SDS011;56411;52.964;10.540;2023-03-03T04:19:51;66.90;;;26.40;;
16101;SDS011;56411;52.964;10.540;2023-03-03T04:22:18;65.83;;;25.87;;
16101;SDS011;56411;52.964;10.540;2023-03-03T04:24:45;66.73;;;26.70;;
16101;SDS011;56411;52.964;10.540;2023-03-03T04:27:14;66.27;;;26.03;;
16101;SDS011;56411;52.964;10.540;2023-03-03T04:29:41;68.37;;;26.97;;
16101;SDS011;56411;52.964;10.540;2023-03-03T04:32:09;73.63;;;27.90;;
16101;SDS011;56411;52.964;10.540;2023-03-03T04:34:36;77.07;;;28.73;;
16101;SDS011;56411;52.964;10.540;2023-03-03T04:37:03;73.97;;;28.03;;
16101;SDS011;56411;52.964;10.540;2023-03-03T04:39:30;68.23;;;26.27;;
16101;SDS011;56411;52.964;10.540;2023-03-03T04:41:57;71.27;;;28.50;;
16101;SDS011;56411;52.964;10.540;2023-03-03T04:44:26;67.40;;;26.83;;
16101;SDS011;56411;52.964;10.540;2023-03-03T04:46:53;70.17;;;28.30;;
16101;SDS011;56411;52.964;10.540;2023-03-03T04:49:20;71.20;;;25.80;;
16101;SDS011;56411;52.964;10.540;2023-03-03T04:51:48;65.13;;;25.73;;
16101;SDS011;56411;52.964;10.540;2023-03-03T04:54:15;70.90;;;26.90;;
16101;SDS011;56411;52.964;10.540;2023-03-03T04:56:42;69.57;;;26.90;;
16101;SDS011;56411;52.964;10.540;2023-03-03T04:59:10;66.03;;;26.67;;
16101;SDS011;56411;52.964;10.540;2023-03-03T05:01:38;68.97;;;26.83;;
16101;SDS011;56411;52.964;10.540;2023-03-03T05:04:06;65.03;;;25.63;;
16101;SDS011;56411;52.964;10.540;2023-03-03T05:06:33;68.17;;;25.40;;
16101;SDS011;56411;52.964;10.540;2023-03-03T05:09:00;63.27;;;25.50;;
16101;SDS011;56411;52.964;10.540;2023-03-03T05:11:27;63.43;;;25.77;;
16101;SDS011;56411;52.964;10.540;2023-03-03T05:13:57;65.10;;;25.57;;
16101;SDS011;56411;52.964;10.540;2023-03-03T05:16:24;65.27;;;25.30;;
16101;SDS011;56411;52.964;10.540;2023-03-03T05:18:53;62.33;;;24.80;;
16101;SDS011;56411;52.964;10.540;2023-03-03T05:21:21;68.73;;;26.13;;
16101;SDS011;56411;52.964;10.540;2023-03-03T05:23:51;68.33;;;26.20;;
16101;SDS011;56411;52.964;10.540;2023-03-03T05:26:18;68.27;;;26.57;;
16101;SDS011;56411;52.964;10.540;2023-03-03T05:28:46;70.07;;;26.70;;
16101;SDS011;56411;52.964;10.540;2023-03-03T05:31:13;66.13;;;25.43;;
16101;SDS011;56411;52.964;10.540;2023-03-03T05:33:40;65.97;;;24.77;;
16101;SDS011;56411;52.964;10.540;2023-03-03T05:36:09;67.87;;;25.83;;
16101;SDS011;56411;52.964;10.540;2023-03-03T05:38:36;65.67;;;25.43;;
16101;SDS011;56411;52.964;10.540;2023-03-03T05:41:04;66.00;;;24.73;;
16101;SDS011;56411;52.964;10.540;2023-03-03T05:43:31;67.80;;;24.27;;
16101;SDS011;56411;52.964;10.540;2023-03-03T05:45:58;72.73;;;24.63;;
16101;SDS011;56411;52.964;10.540;2023-03-03T05:48:25;70.27;;;24.10;;
16101;SDS011;56411;52.964;10.540;2023-03-03T05:50:52;71.67;;;25.47;;
16101;SDS011;56411;52.964;10.540;2023-03-03T05:53:21;72.07;;;26.87;;
16101;SDS011;56411;52.964;10.540;2023-03-03T05:55:48;72.40;;;25.97;;
16101;SDS011;56411;52.964;10.540;2023-03-03T05:58:15;66.87;;;24.60;;
16101;SDS011;56411;52.964;10.540;2023-03-03T06:00:42;68.93;;;24.57;;
16101;SDS011;56411;52.964;10.540;2023-03-03T06:03:10;71.00;;;25.17;;
16101;SDS011;56411;52.964;10.540;2023-03-03T06:05:36;68.00;;;24.93;;
16101;SDS011;56411;52.964;10.540;2023-03-03T06:08:04;70.63;;;25.00;;
16101;SDS011;56411;52.964;10.540;2023-03-03T06:10:33;66.67;;;22.23;;
16101;SDS011;56411;52.964;10.540;2023-03-03T06:13:00;61.03;;;22.90;;
16101;SDS011;56411;52.964;10.540;2023-03-03T06:15:27;64.00;;;23.73;;
16101;SDS011;56411;52.964;10.540;2023-03-03T06:17:54;69.63;;;24.83;;
16101;SDS011;56411;52.964;10.540;2023-03-03T06:20:21;71.37;;;25.33;;
16101;SDS011;56411;52.964;10.540;2023-03-03T06:22:48;75.03;;;27.10;;
16101;SDS011;56411;52.964;10.540;2023-03-03T06:25:15;70.63;;;25.30;;
16101;SDS011;56411;52.964;10.540;2023-03-03T06:27:44;71.70;;;24.90;;
16101;SDS011;56411;52.964;10.540;2023-03-03T06:30:11;71.67;;;24.87;;
16101;SDS011;56411;52.964;10.540;2023-03-03T06:32:39;69.80;;;25.63;;
16101;SDS011;56411;52.964;10.540;2023-03-03T06:35:07;67.20;;;25.67;;
16101;SDS011;56411;52.964;10.540;2023-03-03T06:37:34;69.63;;;24.67;;
16101;SDS011;56411;52.964;10.540;2023-03-03T06:40:01;67.63;;;24.47;;
16101;SDS011;56411;52.964;10.540;2023-03-03T06:42:28;68.70;;;25.20;;
16101;SDS011;56411;52.964;10.540;2023-03-03T06:44:56;68.83;;;24.33;;
16101;SDS011;56411;52.964;10.540;2023-03-03T06:47:24;75.23;;;23.93;;
16101;SDS011;56411;52.964;10.540;2023-03-03T06:49:51;74.50;;;24.03;;
16101;SDS011;56411;52.964;10.540;2023-03-03T06:52:19;68.17;;;24.00;;
16101;SDS011;56411;52.964;10.540;2023-03-03T06:54:48;72.50;;;24.87;;
16101;SDS011;56411;52.964;10.540;2023-03-03T06:57:19;62.80;;;25.17;;
16101;SDS011;56411;52.964;10.540;2023-03-03T06:59:52;68.70;;;24.73;;
16101;SDS011;56411;52.964;10.540;2023-03-03T07:02:22;70.13;;;25.10;;
16101;SDS011;56411;52.964;10.540;2023-03-03T07:04:49;68.40;;;24.57;;
16101;SDS011;56411;52.964;10.540;2023-03-03T07:07:19;65.90;;;23.17;;
16101;SDS011;56411;52.964;10.540;2023-03-03T07:09:49;62.93;;;23.37;;
16101;SDS011;56411;52.964;10.540;2023-03-03T07:12:18;64.60;;;23.37;;
16101;SDS011;56411;52.964;10.540;2023-03-03T07:14:48;70.40;;;26.20;;
16101;SDS011;56411;52.964;10.540;2023-03-03T07:17:20;65.63;;;23.63;;
16101;SDS011;56411;52.964;10.540;2023-03-03T07:19:50;70.53;;;24.87;;
16101;SDS011;56411;52.964;10.540;2023-03-03T07:22:18;60.90;;;23.53;;
16101;SDS011;56411;52.964;10.540;2023-03-03T07:24:48;66.63;;;25.33;;
16101;SDS011;56411;52.964;10.540;2023-03-03T07:27:19;66.90;;;25.57;;
16101;SDS011;56411;52.964;10.540;2023-03-03T07:29:50;64.37;;;23.37;;
16101;SDS011;56411;52.964;10.540;2023-03-03T07:32:26;65.70;;;24.17;;
16101;SDS011;56411;52.964;10.540;2023-03-03T07:35:01;66.70;;;24.37;;
16101;SDS011;56411;52.964;10.540;2023-03-03T07:37:37;70.47;;;24.67;;
16101;SDS011;56411;52.964;10.540;2023-03-03T07:40:06;68.70;;;25.10;;
16101;SDS011;56411;52.964;10.540;2023-03-03T07:42:54;66.77;;;25.20;;
16101;SDS011;56411;52.964;10.540;2023-03-03T07:45:24;55.93;;;23.20;;
16101;SDS011;56411;52.964;10.540;2023-03-03T07:47:56;67.03;;;24.53;;
16101;SDS011;56411;52.964;10.540;2023-03-03T07:50:29;65.97;;;25.37;;
16101;SDS011;56411;52.964;10.540;2023-03-03T07:52:57;70.87;;;24.10;;
16101;SDS011;56411;52.964;10.540;2023-03-03T07:55:28;60.57;;;23.93;;
16101;SDS011;56411;52.964;10.540;2023-03-03T07:58:05;57.63;;;22.13;;
16101;SDS011;56411;52.964;10.540;2023-03-03T08:03:54;56.27;;;21.57;;
16101;SDS011;56411;52.964;10.540;2023-03-03T08:12:13;57.03;;;21.53;;
16101;SDS011;56411;52.964;10.540;2023-03-03T08:15:09;53.23;;;22.20;;
16101;SDS011;56411;52.964;10.540;2023-03-03T08:17:48;50.80;;;19.97;;
16101;SDS011;56411;52.964;10.540;2023-03-03T08:23:20;55.60;;;21.93;;
16101;SDS011;56411;52.964;10.540;2023-03-03T08:25:48;56.53;;;22.17;;
16101;SDS011;56411;52.964;10.540;2023-03-03T08:28:16;51.07;;;20.93;;
16101;SDS011;56411;52.964;10.540;2023-03-03T08:30:44;54.07;;;20.47;;
16101;SDS011;56411;52.964;10.540;2023-03-03T08:33:11;55.43;;;20.53;;
16101;SDS011;56411;52.964;10.540;2023-03-03T08:35:39;53.00;;;22.00;;
16101;SDS011;56411;52.964;10.540;2023-03-03T08:38:09;47.77;;;20.00;;
16101;SDS011;56411;52.964;10.540;2023-03-03T08:40:36;49.27;;;19.87;;
16101;SDS011;56411;52.964;10.540;2023-03-03T08:43:03;46.80;;;20.50;;
16101;SDS011;56411;52.964;10.540;2023-03-03T08:45:31;45.27;;;20.10;;
16101;SDS011;56411;52.964;10.540;2023-03-03T08:47:59;48.80;;;19.27;;
16101;SDS011;56411;52.964;10.540;2023-03-03T08:50:26;44.47;;;18.93;;
16101;SDS011;56411;52.964;10.540;2023-03-03T08:52:53;44.23;;;18.93;;
16101;SDS011;56411;52.964;10.540;2023-03-03T08:55:22;44.17;;;18.30;;
16101;SDS011;56411;52.964;10.540;2023-03-03T08:57:49;44.77;;;19.33;;
16101;SDS011;56411;52.964;10.540;2023-03-03T09:00:17;42.03;;;17.40;;
16101;SDS011;56411;52.964;10.540;2023-03-03T09:02:46;40.17;;;17.67;;
16101;SDS011;56411;52.964;10.540;2023-03-03T09:05:14;42.00;;;17.97;;
16101;SDS011;56411;52.964;10.540;2023-03-03T09:07:42;43.67;;;18.47;;
16101;SDS011;56411;52.964;10.540;2023-03-03T09:10:11;45.97;;;19.67;;
16101;SDS011;56411;52.964;10.540;2023-03-03T09:12:41;47.70;;;19.97;;
16101;SDS011;56411;52.964;10.540;2023-03-03T09:15:14;47.93;;;19.60;;
16101;SDS011;56411;52.964;10.540;2023-03-03T09:17:45;44.87;;;18.47;;
16101;SDS011;56411;52.964;10.540;2023-03-03T09:20:20;47.13;;;19.33;;
16101;SDS011;56411;52.964;10.540;2023-03-03T09:22:57;40.30;;;17.93;;
16101;SDS011;56411;52.964;10.540;2023-03-03T09:25:26;48.93;;;20.03;;
16101;SDS011;56411;52.964;10.540;2023-03-03T09:28:00;45.97;;;19.93;;
16101;SDS011;56411;52.964;10.540;2023-03-03T09:30:29;45.50;;;18.73;;
16101;SDS011;56411;52.964;10.540;2023-03-03T09:33:15;45.10;;;19.07;;
16101;SDS011;56411;52.964;10.540;2023-03-03T09:35:49;43.20;;;18.40;;
16101;SDS011;56411;52.964;10.540;2023-03-03T09:38:31;47.63;;;19.60;;
16101;SDS011;56411;52.964;10.540;2023-03-03T09:41:13;45.50;;;19.17;;
16101;SDS011;56411;52.964;10.540;2023-03-03T09:46:59;46.07;;;17.97;;
16101;SDS011;56411;52.964;10.540;2023-03-03T09:49:37;38.67;;;16.63;;
16101;SDS011;56411;52.964;10.540;2023-03-03T09:52:16;43.23;;;17.60;;
16101;SDS011;56411;52.964;10.540;2023-03-03T09:55:00;42.27;;;18.47;;
16101;SDS011;56411;52.964;10.540;2023-03-03T09:57:38;40.60;;;17.10;;
16101;SDS011;56411;52.964;10.540;2023-03-03T10:00:25;40.27;;;18.60;;
16101;SDS011;56411;52.964;10.540;2023-03-03T10:03:07;37.83;;;17.47;;
16101;SDS011;56411;52.964;10.540;2023-03-03T10:05:50;36.77;;;16.27;;
16101;SDS011;56411;52.964;10.540;2023-03-03T10:08:36;38.47;;;16.53;;
16101;SDS011;56411;52.964;10.540;2023-03-03T10:11:17;38.50;;;17.33;;
16101;SDS011;56411;52.964;10.540;2023-03-03T10:13:57;42.33;;;17.10;;
16101;SDS011;56411;52.964;10.540;2023-03-03T10:16:48;39.77;;;17.70;;
16101;SDS011;56411;52.964;10.540;2023-03-03T10:19:32;39.00;;;16.73;;
16101;SDS011;56411;52.964;10.540;2023-03-03T10:22:15;41.23;;;17.33;;
16101;SDS011;56411;52.964;10.540;2023-03-03T10:24:51;41.67;;;18.63;;
16101;SDS011;56411;52.964;10.540;2023-03-03T10:27:32;40.30;;;18.00;;
16101;SDS011;56411;52.964;10.540;2023-03-03T10:30:12;38.13;;;18.37;;
16101;SDS011;56411;52.964;10.540;2023-03-03T10:32:50;44.43;;;18.10;;
16101;SDS011;56411;52.964;10.540;2023-03-03T10:35:23;41.17;;;19.10;;
16101;SDS011;56411;52.964;10.540;2023-03-03T10:38:14;41.57;;;19.20;;
16101;SDS011;56411;52.964;10.540;2023-03-03T10:40:51;38.50;;;17.30;;
16101;SDS011;56411;52.964;10.540;2023-03-03T10:43:31;37.20;;;16.63;;
16101;SDS011;56411;52.964;10.540;2023-03-03T10:49:21;33.33;;;15.60;;
16101;SDS011;56411;52.964;10.540;2023-03-03T10:52:02;36.87;;;15.83;;
16101;SDS011;56411;52.964;10.540;2023-03-03T10:54:47;36.43;;;16.73;;
16101;SDS011;56411;52.964;10.540;2023-03-03T10:57:32;35.37;;;15.70;;
16101;SDS011;56411;52.964;10.540;2023-03-03T11:00:15;35.33;;;15.77;;
16101;SDS011;56411;52.964;10.540;2023-03-03T11:02:55;36.87;;;16.30;;
16101;SDS011;56411;52.964;10.540;2023-03-03T11:05:41;36.53;;;16.53;;
16101;SDS011;56411;52.964;10.540;2023-03-03T11:08:14;35.67;;;16.37;;
16101;SDS011;56411;52.964;10.540;2023-03-03T11:10:47;35.90;;;16.40;;
16101;SDS011;56411;52.964;10.540;2023-03-03T11:13:20;37.27;;;16.47;;
16101;SDS011;56411;52.964;10.540;2023-03-03T11:15:57;30.33;;;14.87;;
16101;SDS011;56411;52.964;10.540;2023-03-03T11:18:33;36.10;;;15.30;;
16101;SDS011;56411;52.964;10.540;2023-03-03T11:21:11;30.90;;;14.60;;
16101;SDS011;56411;52.964;10.540;2023-03-03T11:26:47;28.07;;;13.13;;
16101;SDS011;56411;52.964;10.540;2023-03-03T11:29:29;28.53;;;13.73;;
16101;SDS011;56411;52.964;10.540;2023-03-03T11:32:09;30.60;;;14.43;;
16101;SDS011;56411;52.964;10.540;2023-03-03T11:34:49;30.17;;;13.83;;
16101;SDS011;56411;52.964;10.540;2023-03-03T11:37:25;32.40;;;15.20;;
16101;SDS011;56411;52.964;10.540;2023-03-03T11:40:04;30.50;;;15.50;;
16101;SDS011;56411;52.964;10.540;2023-03-03T11:42:40;32.70;;;14.83;;
16101;SDS011;56411;52.964;10.540;2023-03-03T11:45:16;32.37;;;14.37;;
16101;SDS011;56411;52.964;10.540;2023-03-03T11:47:47;27.90;;;13.90;;
16101;SDS011;56411;52.964;10.540;2023-03-03T11:50:23;30.83;;;14.63;;
16101;SDS011;56411;52.964;10.540;2023-03-03T11:52:59;29.60;;;14.03;;
16101;SDS011;56411;52.964;10.540;2023-03-03T11:55:40;28.23;;;14.37;;
16101;SDS011;56411;52.964;10.540;2023-03-03T11:58:11;25.43;;;13.10;;
16101;SDS011;56411;52.964;10.540;2023-03-03T12:00:45;27.67;;;14.10;;
16101;SDS011;56411;52.964;10.540;2023-03-03T12:03:18;27.57;;;12.97;;
16101;SDS011;56411;52.964;10.540;2023-03-03T12:05:54;26.67;;;12.77;;
16101;SDS011;56411;52.964;10.540;2023-03-03T12:11:23;26.53;;;13.23;;
16101;SDS011;56411;52.964;10.540;2023-03-03T12:13:54;24.27;;;12.03;;
16101;SDS011;56411;52.964;10.540;2023-03-03T12:16:31;23.33;;;12.10;;
16101;SDS011;56411;52.964;10.540;2023-03-03T12:19:09;24.87;;;12.20;;
16101;SDS011;56411;52.964;10.540;2023-03-03T12:21:46;22.37;;;11.33;;
16101;SDS011;56411;52.964;10.540;2023-03-03T12:24:35;20.63;;;9.80;;
16101;SDS011;56411;52.964;10.540;2023-03-03T12:27:14;23.90;;;12.50;;
16101;SDS011;56411;52.964;10.540;2023-03-03T12:29:51;24.27;;;12.60;;
16101;SDS011;56411;52.964;10.540;2023-03-03T12:32:31;23.93;;;11.43;;
16101;SDS011;56411;52.964;10.540;2023-03-03T12:35:10;22.03;;;11.40;;
16101;SDS011;56411;52.964;10.540;2023-03-03T12:37:46;22.53;;;11.33;;
16101;SDS011;56411;52.964;10.540;2023-03-03T12:40:22;22.53;;;11.93;;
16101;SDS011;56411;52.964;10.540;2023-03-03T12:42:55;23.37;;;12.13;;
16101;SDS011;56411;52.964;10.540;2023-03-03T12:45:34;20.93;;;10.20;;
16101;SDS011;56411;52.964;10.540;2023-03-03T12:48:15;21.57;;;11.10;;
16101;SDS011;56411;52.964;10.540;2023-03-03T12:50:48;20.03;;;10.50;;
16101;SDS011;56411;52.964;10.540;2023-03-03T12:53:31;20.60;;;10.73;;
16101;SDS011;56411;52.964;10.540;2023-03-03T12:56:13;21.37;;;11.77;;
16101;SDS011;56411;52.964;10.540;2023-03-03T12:58:46;22.27;;;11.07;;
16101;SDS011;56411;52.964;10.540;2023-03-03T13:01:27;21.70;;;11.00;;
16101;SDS011;56411;52.964;10.540;2023-03-03T13:04:07;22.13;;;11.00;;
16101;SDS011;56411;52.964;10.540;2023-03-03T13:06:40;20.20;;;10.50;;
16101;SDS011;56411;52.964;10.540;2023-03-03T13:09:16;20.57;;;10.43;;
16101;SDS011;56411;52.964;10.540;2023-03-03T13:14:49;22.50;;;10.80;;
16101;SDS011;56411;52.964;10.540;2023-03-03T13:17:24;22.00;;;11.47;;
16101;SDS011;56411;52.964;10.540;2023-03-03T13:19:56;22.10;;;11.43;;
16101;SDS011;56411;52.964;10.540;2023-03-03T13:22:31;19.80;;;10.30;;
16101;SDS011;56411;52.964;10.540;2023-03-03T13:25:05;22.53;;;11.10;;
16101;SDS011;56411;52.964;10.540;2023-03-03T13:27:41;22.47;;;12.23;;
16101;SDS011;56411;52.964;10.540;2023-03-03T13:30:15;20.20;;;10.37;;
16101;SDS011;56411;52.964;10.540;2023-03-03T13:32:47;21.70;;;11.33;;
16101;SDS011;56411;52.964;10.540;2023-03-03T13:35:21;21.30;;;11.00;;
16101;SDS011;56411;52.964;10.540;2023-03-03T13:37:59;20.73;;;10.47;;
16101;SDS011;56411;52.964;10.540;2023-03-03T13:40:34;20.43;;;10.63;;
16101;SDS011;56411;52.964;10.540;2023-03-03T13:43:12;20.70;;;10.37;;
16101;SDS011;56411;52.964;10.540;2023-03-03T13:45:48;20.00;;;10.40;;
16101;SDS011;56411;52.964;10.540;2023-03-03T13:48:27;23.70;;;11.83;;
16101;SDS011;56411;52.964;10.540;2023-03-03T13:51:18;23.03;;;11.73;;
16101;SDS011;56411;52.964;10.540;2023-03-03T13:53:57;24.70;;;12.93;;
16101;SDS011;56411;52.964;10.540;2023-03-03T13:59:32;27.60;;;14.10;;
16101;SDS011;56411;52.964;10.540;2023-03-03T14:02:18;28.27;;;13.97;;
16101;SDS011;56411;52.964;10.540;2023-03-03T14:04:58;26.23;;;13.27;;
16101;SDS011;56411;52.964;10.540;2023-03-03T14:07:29;26.87;;;14.13;;
16101;SDS011;56411;52.964;10.540;2023-03-03T14:10:06;27.80;;;13.90;;
16101;SDS011;56411;52.964;10.540;2023-03-03T14:12:41;25.27;;;13.00;;
16101;SDS011;56411;52.964;10.540;2023-03-03T14:15:17;28.20;;;13.97;;
16101;SDS011;56411;52.964;10.540;2023-03-03T14:18:02;27.10;;;13.30;;
16101;SDS011;56411;52.964;10.540;2023-03-03T14:20:50;28.17;;;13.43;;
16101;SDS011;56411;52.964;10.540;2023-03-03T14:23:22;25.93;;;13.53;;
16101;SDS011;56411;52.964;10.540;2023-03-03T14:25:56;24.60;;;12.27;;
16101;SDS011;56411;52.964;10.540;2023-03-03T14:28:25;28.47;;;13.07;;
16101;SDS011;56411;52.964;10.540;2023-03-03T14:30:56;26.03;;;13.07;;
16101;SDS011;56411;52.964;10.540;2023-03-03T14:33:27;24.27;;;12.17;;
16101;SDS011;56411;52.964;10.540;2023-03-03T14:36:00;26.63;;;12.37;;
16101;SDS011;56411;52.964;10.540;2023-03-03T14:38:36;22.30;;;11.63;;
16101;SDS011;56411;52.964;10.540;2023-03-03T14:41:12;24.00;;;11.57;;
16101;SDS011;56411;52.964;10.540;2023-03-03T14:43:45;25.77;;;11.87;;
16101;SDS011;56411;52.964;10.540;2023-03-03T14:46:35;26.07;;;13.23;;
16101;SDS011;56411;52.964;10.540;2023-03-03T14:49:04;23.87;;;12.17;;
16101;SDS011;56411;52.964;10.540;2023-03-03T14:51:42;23.80;;;12.17;;
16101;SDS011;56411;52.964;10.540;2023-03-03T14:54:15;27.37;;;12.13;;
16101;SDS011;56411;52.964;10.540;2023-03-03T14:56:55;25.33;;;12.30;;
16101;SDS011;56411;52.964;10.540;2023-03-03T14:59:25;22.47;;;11.10;;
16101;SDS011;56411;52.964;10.540;2023-03-03T15:01:59;24.30;;;12.70;;
16101;SDS011;56411;52.964;10.540;2023-03-03T15:04:49;25.37;;;11.90;;
16101;SDS011;56411;52.964;10.540;2023-03-03T15:07:34;26.13;;;12.33;;
16101;SDS011;56411;52.964;10.540;2023-03-03T15:10:03;26.03;;;12.90;;